createdAt,value
2018-05-24T00:02:01.668Z,13.40
2018-05-24T00:04:29.284Z,13.60
2018-05-24T00:06:57.031Z,13.50
2018-05-24T00:09:24.677Z,15.17
2018-05-24T00:11:52.342Z,13.97
2018-05-24T00:14:20.106Z,13.73
2018-05-24T00:16:47.645Z,14.77
2018-05-24T00:19:15.310Z,14.83
2018-05-24T00:21:42.974Z,15.60
2018-05-24T00:24:10.559Z,16.23
2018-05-24T00:26:38.206Z,15.80
2018-05-24T00:29:05.976Z,16.43
2018-05-24T00:31:34.349Z,16.00
2018-05-24T00:34:02.018Z,16.33
2018-05-24T00:36:29.679Z,18.30
2018-05-24T00:38:58.067Z,17.90
2018-05-24T00:41:25.688Z,19.10
2018-05-24T00:43:53.436Z,19.90
2018-05-24T00:46:21.969Z,18.53
2018-05-24T00:48:49.627Z,19.40
2018-05-24T00:51:18.107Z,19.70
2018-05-24T00:53:46.489Z,21.30
2018-05-24T00:56:14.178Z,21.43
2018-05-24T00:58:41.875Z,22.00
2018-05-24T01:01:09.608Z,21.70
2018-05-24T01:03:37.283Z,21.97
2018-05-24T01:06:05.722Z,20.40
2018-05-24T01:08:34.248Z,19.83
2018-05-24T01:11:05.015Z,22.90
2018-05-24T01:13:32.716Z,20.40
2018-05-24T01:16:00.341Z,23.43
2018-05-24T01:18:28.531Z,22.73
2018-05-24T01:20:56.120Z,24.00
2018-05-24T01:23:23.824Z,23.60
2018-05-24T01:25:51.532Z,23.80
2018-05-24T01:28:19.188Z,24.90
2018-05-24T01:30:46.774Z,26.63
2018-05-24T01:33:14.458Z,26.30
2018-05-24T01:35:42.060Z,27.37
2018-05-24T01:38:09.717Z,29.10
2018-05-24T01:40:37.500Z,28.17
2018-05-24T01:43:05.214Z,30.20
2018-05-24T01:45:32.746Z,31.37
2018-05-24T01:48:00.309Z,30.63
2018-05-24T01:50:27.935Z,31.67
2018-05-24T01:52:56.126Z,29.50
2018-05-24T01:55:27.959Z,33.77
2018-05-24T01:57:55.828Z,31.30
2018-05-24T02:00:24.233Z,35.03
2018-05-24T02:02:51.837Z,33.73
2018-05-24T02:05:19.403Z,33.30
2018-05-24T02:07:48.538Z,33.50
2018-05-24T02:10:16.811Z,35.30
2018-05-24T02:12:45.083Z,33.40
2018-05-24T02:15:13.399Z,33.47
2018-05-24T02:17:40.931Z,35.50
2018-05-24T02:20:09.275Z,36.33
2018-05-24T02:22:36.790Z,35.13
2018-05-24T02:25:04.395Z,33.90
2018-05-24T02:27:32.044Z,35.83
2018-05-24T02:29:59.672Z,36.23
2018-05-24T02:32:27.337Z,36.93
2018-05-24T02:34:55.057Z,38.60
2018-05-24T02:37:23.450Z,38.53
2018-05-24T02:39:51.952Z,39.85
2018-05-24T02:42:19.515Z,38.60
2018-05-24T02:44:47.869Z,40.87
2018-05-24T02:47:16.268Z,38.25
2018-05-24T02:49:43.905Z,40.80
2018-05-24T02:52:12.276Z,43.30
2018-05-24T02:54:40.582Z,44.40
2018-05-24T02:57:09.034Z,45.83
2018-05-24T02:59:36.610Z,47.30
2018-05-24T03:02:04.940Z,48.47
2018-05-24T03:04:32.676Z,51.93
2018-05-24T03:07:00.223Z,49.80
2018-05-24T03:09:27.731Z,52.87
2018-05-24T03:11:55.243Z,50.37
2018-05-24T03:14:22.771Z,52.60
2018-05-24T03:16:50.289Z,53.03
2018-05-24T03:19:17.838Z,54.70
2018-05-24T03:21:45.350Z,54.47
2018-05-24T03:24:13.660Z,55.30
2018-05-24T03:26:41.187Z,53.60
2018-05-24T03:29:09.493Z,55.37
2018-05-24T03:31:37.050Z,47.57
2018-05-24T03:34:04.579Z,46.50
2018-05-24T03:36:32.165Z,44.87
2018-05-24T03:38:59.855Z,45.30
2018-05-24T03:41:27.478Z,45.00
2018-05-24T03:43:55.078Z,41.90
2018-05-24T03:46:22.623Z,38.47
2018-05-24T03:48:50.151Z,41.77
2018-05-24T03:51:18.431Z,37.63
2018-05-24T03:53:46.081Z,35.83
2018-05-24T03:56:13.655Z,36.57
2018-05-24T03:58:42.727Z,36.00
2018-05-24T04:01:22.242Z,35.97
2018-05-24T04:03:49.753Z,33.00
2018-05-24T04:06:18.214Z,32.00
2018-05-24T04:08:46.530Z,31.13
2018-05-24T04:11:14.887Z,29.70
2018-05-24T04:13:43.171Z,29.10
2018-05-24T04:16:11.666Z,30.70
2018-05-24T04:18:39.367Z,29.83
2018-05-24T04:21:07.745Z,26.53
2018-05-24T04:23:35.453Z,29.40
2018-05-24T04:26:03.041Z,29.80
2018-05-24T04:28:30.595Z,27.25
2018-05-24T04:30:58.219Z,26.37
2018-05-24T04:33:26.634Z,26.70
2018-05-24T04:35:54.172Z,26.40
2018-05-24T04:38:22.468Z,24.83
2018-05-24T04:40:49.992Z,24.37
2018-05-24T04:43:17.666Z,23.93
2018-05-24T04:45:46.144Z,23.23
2018-05-24T04:48:14.593Z,23.90
2018-05-24T04:50:42.148Z,23.20
2018-05-24T04:53:09.655Z,22.90
2018-05-24T04:55:37.938Z,22.13
2018-05-24T04:58:05.557Z,22.97
2018-05-24T05:00:33.277Z,23.40
2018-05-24T05:03:00.905Z,22.10
2018-05-24T05:05:28.603Z,21.15
2018-05-24T05:07:56.140Z,22.57
2018-05-24T05:10:24.549Z,22.20
2018-05-24T05:12:53.084Z,21.00
2018-05-24T05:15:21.493Z,20.53
2018-05-24T05:17:49.128Z,21.27
2018-05-24T05:20:17.611Z,20.30
2018-05-24T05:22:46.016Z,20.20
2018-05-24T05:25:13.678Z,18.87
2018-05-24T05:27:42.001Z,19.30
2018-05-24T05:30:09.584Z,18.70
2018-05-24T05:32:37.140Z,17.60
2018-05-24T05:35:05.555Z,19.20
2018-05-24T05:37:33.192Z,18.80
2018-05-24T05:40:00.985Z,17.40
2018-05-24T05:42:28.646Z,19.40
2018-05-24T05:44:56.240Z,18.57
2018-05-24T05:47:23.833Z,18.93
2018-05-24T05:49:52.410Z,17.67
2018-05-24T05:52:20.184Z,17.37
2018-05-24T05:54:47.949Z,16.60
2018-05-24T05:57:15.849Z,17.20
2018-05-24T05:59:43.462Z,15.97
2018-05-24T06:02:11.103Z,15.57
2018-05-24T06:04:38.821Z,18.20
2018-05-24T06:07:07.323Z,17.90
2018-05-24T06:09:35.676Z,15.50
2018-05-24T06:12:03.201Z,16.33
2018-05-24T06:14:30.845Z,16.77
2018-05-24T06:16:59.268Z,16.67
2018-05-24T06:19:27.649Z,16.70
2018-05-24T06:21:55.184Z,14.67
2018-05-24T06:24:22.731Z,17.33
2018-05-24T06:26:50.461Z,15.77
2018-05-24T06:29:17.979Z,15.90
2018-05-24T06:31:45.509Z,15.53
2018-05-24T06:34:14.089Z,14.13
2018-05-24T06:36:41.694Z,14.13
2018-05-24T06:39:09.444Z,13.90
2018-05-24T06:41:37.954Z,15.57
2018-05-24T06:44:05.616Z,13.60
2018-05-24T06:46:33.991Z,15.30
2018-05-24T06:49:01.567Z,14.87
2018-05-24T06:51:29.984Z,14.80
2018-05-24T06:53:57.700Z,14.37
2018-05-24T06:56:25.459Z,14.57
2018-05-24T06:58:53.756Z,11.90
2018-05-24T07:01:21.285Z,11.20
2018-05-24T07:03:48.854Z,12.40
2018-05-24T07:06:17.268Z,11.47
2018-05-24T07:08:44.815Z,12.97
2018-05-24T07:11:13.718Z,12.27
2018-05-24T07:13:41.389Z,12.60
2018-05-24T07:16:08.908Z,10.97
2018-05-24T07:18:37.285Z,10.17
2018-05-24T07:21:04.784Z,10.43
2018-05-24T07:23:32.306Z,10.30
2018-05-24T07:26:00.106Z,10.77
2018-05-24T07:28:27.683Z,11.07
2018-05-24T07:30:55.199Z,10.67
2018-05-24T07:33:23.504Z,9.60
2018-05-24T07:35:51.021Z,9.30
2018-05-24T07:38:19.443Z,10.40
2018-05-24T07:40:47.031Z,10.50
2018-05-24T07:43:15.298Z,10.80
2018-05-24T07:45:42.868Z,10.70
2018-05-24T07:48:10.396Z,10.80
2018-05-24T07:50:37.907Z,10.90
2018-05-24T07:53:05.424Z,10.20
2018-05-24T07:55:33.001Z,11.80
2018-05-24T07:58:00.543Z,11.53
2018-05-24T08:00:28.058Z,12.03
2018-05-24T08:02:56.346Z,10.90
2018-05-24T08:05:24.660Z,10.77
2018-05-24T08:07:52.177Z,11.47
2018-05-24T08:10:19.735Z,11.37
2018-05-24T08:12:48.048Z,11.17
2018-05-24T08:15:15.567Z,11.70
2018-05-24T08:17:43.847Z,12.00
2018-05-24T08:20:12.157Z,12.53
2018-05-24T08:22:39.668Z,10.67
2018-05-24T08:25:07.169Z,10.97
2018-05-24T08:27:34.714Z,11.40
2018-05-24T08:30:02.220Z,11.90
2018-05-24T08:32:30.643Z,11.43
2018-05-24T08:34:58.948Z,12.37
2018-05-24T08:37:27.079Z,10.93
2018-05-24T08:39:56.323Z,11.67
2018-05-24T08:42:25.463Z,11.73
2018-05-24T08:44:53.129Z,11.77
2018-05-24T08:47:20.936Z,11.60
2018-05-24T08:49:49.267Z,10.70
2018-05-24T08:52:16.961Z,10.67
2018-05-24T08:54:45.411Z,9.80
2018-05-24T08:57:12.999Z,10.00
2018-05-24T08:59:41.463Z,12.57
2018-05-24T09:02:09.290Z,17.63
2018-05-24T09:04:36.855Z,11.30
2018-05-24T09:07:04.580Z,11.17
2018-05-24T09:09:33.135Z,11.03
2018-05-24T09:12:03.563Z,11.27
2018-05-24T09:14:31.087Z,12.30
2018-05-24T09:16:58.692Z,10.70
2018-05-24T09:19:28.728Z,11.57
2018-05-24T09:21:56.566Z,10.40
2018-05-24T09:27:00.257Z,11.20
2018-05-24T09:29:28.192Z,11.70
2018-05-24T09:31:56.903Z,10.50
2018-05-24T09:34:24.517Z,10.70
2018-05-24T09:36:53.026Z,11.17
2018-05-24T09:39:20.551Z,12.07
2018-05-24T09:41:48.856Z,12.23
2018-05-24T09:44:16.491Z,11.35
2018-05-24T09:46:44.949Z,12.20
2018-05-24T09:49:12.483Z,10.40
2018-05-24T09:51:41.087Z,12.17
2018-05-24T09:54:10.047Z,11.20
2018-05-24T09:56:38.701Z,11.67
2018-05-24T09:59:06.279Z,11.80
2018-05-24T10:06:28.895Z,12.00
2018-05-24T10:08:56.481Z,11.80
2018-05-24T10:11:24.056Z,10.53
2018-05-24T10:13:53.316Z,11.00
2018-05-24T10:21:15.332Z,10.03
2018-05-24T10:23:44.669Z,13.27
2018-05-24T10:31:07.668Z,13.70
2018-05-24T10:33:38.586Z,11.75
2018-05-24T10:38:36.992Z,11.10
2018-05-24T10:41:06.889Z,11.57
2018-05-24T10:43:34.495Z,11.90
2018-05-24T10:46:06.651Z,11.57
2018-05-24T10:48:34.983Z,12.60
2018-05-24T10:51:04.791Z,12.67
2018-05-24T10:53:32.484Z,14.57
2018-05-24T10:56:03.951Z,11.47
2018-05-24T10:58:32.261Z,11.50
2018-05-24T12:15:16.518Z,12.15
2018-05-24T12:17:44.066Z,10.80
2018-05-24T12:20:11.621Z,11.30
2018-05-24T12:22:43.618Z,14.67
2018-05-24T12:25:12.773Z,11.15
2018-05-24T12:27:40.511Z,8.80
2018-05-24T12:30:15.525Z,15.93
2018-05-24T12:32:43.147Z,10.70
2018-05-24T12:35:10.736Z,9.70
2018-05-24T12:37:38.508Z,14.03
2018-05-24T12:40:06.124Z,13.87
2018-05-24T12:42:34.627Z,10.17
2018-05-24T12:45:03.051Z,11.40
2018-05-24T12:47:30.854Z,12.43
2018-05-24T12:49:58.447Z,11.83
2018-05-24T12:52:26.791Z,13.43
2018-05-24T12:54:54.527Z,12.97
2018-05-24T12:57:22.109Z,12.40
2018-05-24T12:59:49.706Z,13.83
2018-05-24T13:02:19.118Z,13.40
2018-05-24T13:04:47.611Z,16.70
2018-05-24T13:07:15.196Z,12.77
2018-05-24T13:09:44.264Z,14.70
2018-05-24T13:12:12.482Z,12.80
2018-05-24T13:14:40.147Z,11.97
2018-05-24T13:17:07.791Z,12.90
2018-05-24T13:19:36.525Z,13.23
2018-05-24T13:22:05.543Z,13.27
2018-05-24T13:24:33.107Z,12.17
2018-05-24T13:27:09.320Z,14.80
2018-05-24T13:29:37.092Z,12.70
2018-05-24T13:32:04.688Z,14.70
2018-05-24T13:34:36.293Z,15.07
2018-05-24T13:37:04.195Z,13.90
2018-05-24T13:39:32.617Z,16.57
2018-05-24T13:42:00.303Z,13.60
2018-05-24T13:44:35.483Z,14.53
2018-05-24T13:47:05.060Z,13.67
2018-05-24T13:49:33.596Z,13.93
2018-05-24T13:52:03.140Z,13.30
2018-05-24T13:54:32.618Z,14.03
2018-05-24T13:57:01.010Z,15.50
2018-05-24T13:59:28.623Z,13.60
2018-05-24T14:01:58.247Z,15.57
2018-05-24T14:04:27.143Z,12.40
2018-05-24T14:14:28.960Z,12.90
2018-05-24T14:16:57.322Z,14.97
2018-05-24T14:19:26.688Z,14.27
2018-05-24T14:21:54.322Z,14.13
2018-05-24T14:24:22.846Z,13.87
2018-05-24T14:26:51.234Z,14.60
2018-05-24T14:29:22.691Z,12.80
2018-05-24T14:31:51.075Z,13.10
2018-05-24T14:34:19.491Z,11.60
2018-05-24T14:36:48.061Z,12.87
2018-05-24T14:39:15.725Z,14.53
2018-05-24T14:41:43.492Z,11.97
2018-05-24T14:44:11.446Z,13.43
2018-05-24T14:46:39.019Z,13.23
2018-05-24T14:49:07.510Z,13.60
2018-05-24T14:51:39.498Z,14.63
2018-05-24T14:54:08.261Z,15.07
2018-05-24T14:56:36.080Z,13.27
2018-05-24T14:59:04.771Z,13.90
2018-05-24T15:01:35.850Z,12.63
2018-05-24T15:04:05.712Z,14.47
2018-05-24T15:06:36.666Z,15.50
2018-05-24T15:09:07.279Z,14.80
2018-05-24T15:11:35.378Z,14.00
2018-05-24T15:14:09.118Z,15.57
2018-05-24T15:22:50.812Z,14.90
2018-05-24T15:25:19.514Z,15.53
2018-05-24T15:27:47.062Z,16.00
2018-05-24T15:30:14.776Z,23.83
2018-05-24T15:32:42.384Z,19.60
2018-05-24T15:35:10.909Z,15.53
2018-05-24T15:37:38.433Z,17.87
2018-05-24T15:40:06.030Z,14.13
2018-05-24T15:42:33.725Z,14.10
2018-05-24T15:45:02.134Z,15.43
2018-05-24T15:47:29.945Z,9.83
2018-05-24T15:49:57.555Z,11.13
2018-05-24T15:52:25.119Z,13.73
2018-05-24T15:54:53.439Z,11.00
2018-05-24T15:57:21.032Z,14.40
2018-05-24T15:59:48.583Z,19.20
2018-05-24T16:02:16.140Z,21.07
2018-05-24T16:04:43.683Z,19.90
2018-05-24T16:07:11.203Z,14.07
2018-05-24T16:09:38.760Z,15.60
2018-05-24T16:12:06.307Z,20.20
2018-05-24T16:14:34.776Z,11.37
2018-05-24T16:17:05.422Z,15.77
2018-05-24T16:19:32.967Z,11.70
2018-05-24T16:22:05.085Z,12.90
2018-05-24T16:24:32.741Z,13.57
2018-05-24T16:27:00.301Z,11.20
2018-05-24T16:29:28.007Z,11.30
2018-05-24T16:31:55.550Z,22.20
2018-05-24T16:34:23.230Z,16.23
2018-05-24T16:36:51.613Z,14.83
2018-05-24T16:39:19.186Z,16.90
2018-05-24T16:41:47.015Z,17.63
2018-05-24T16:44:14.682Z,15.67
2018-05-24T16:46:43.117Z,22.10
2018-05-24T16:49:11.496Z,30.13
2018-05-24T16:51:39.011Z,24.30
2018-05-24T16:54:06.664Z,38.00
2018-05-24T16:56:34.188Z,29.00
2018-05-24T16:59:01.736Z,23.47
2018-05-24T17:01:29.279Z,31.73
2018-05-24T17:03:57.587Z,22.97
2018-05-24T17:06:25.237Z,23.60
2018-05-24T17:08:52.929Z,23.67
2018-05-24T17:11:20.438Z,26.37
2018-05-24T17:13:48.716Z,20.13
2018-05-24T17:16:16.304Z,21.60
2018-05-24T17:18:52.383Z,21.60
2018-05-24T17:21:36.350Z,45.80
2018-05-24T17:24:07.874Z,34.33
2018-05-24T17:26:38.681Z,25.27
2018-05-24T17:29:06.925Z,28.70
2018-05-24T17:31:35.301Z,21.63
2018-05-24T17:34:08.181Z,20.40
2018-05-24T17:36:36.052Z,19.63
2018-05-24T17:39:03.957Z,21.80
2018-05-24T17:41:31.691Z,19.00
2018-05-24T17:43:59.372Z,18.13
2018-05-24T17:46:26.976Z,17.83
2018-05-24T17:48:57.126Z,18.13
2018-05-24T17:51:24.892Z,20.27
2018-05-24T17:53:53.290Z,19.60
2018-05-24T17:56:20.864Z,23.27
2018-05-24T17:58:51.775Z,23.23
2018-05-24T18:01:19.672Z,19.27
2018-05-24T18:03:48.326Z,22.20
2018-05-24T18:06:15.898Z,22.10
2018-05-24T18:08:43.500Z,24.30
2018-05-24T18:11:11.089Z,21.67
2018-05-24T18:13:39.499Z,22.10
2018-05-24T18:16:07.346Z,25.23
2018-05-24T18:18:35.866Z,24.37
2018-05-24T18:21:03.427Z,24.17
2018-05-24T18:23:31.702Z,27.27
2018-05-24T18:25:59.565Z,27.40
2018-05-24T18:28:27.244Z,27.07
2018-05-24T18:30:54.978Z,27.47
2018-05-24T18:33:22.838Z,26.97
2018-05-24T18:35:50.546Z,30.97
2018-05-24T18:38:18.236Z,29.30
2018-05-24T18:40:46.180Z,34.40
2018-05-24T18:43:14.622Z,40.37
2018-05-24T18:45:42.371Z,27.67
2018-05-24T18:48:10.095Z,27.57
2018-05-24T18:50:37.801Z,27.60
2018-05-24T18:53:06.196Z,28.70
2018-05-24T18:55:33.839Z,28.90
2018-05-24T18:58:01.931Z,31.37
2018-05-24T19:00:30.657Z,31.30
2018-05-24T19:03:00.225Z,32.13
2018-05-24T19:05:28.099Z,32.10
2018-05-24T19:07:56.738Z,32.07
2018-05-24T19:10:24.450Z,33.80
2018-05-24T19:12:53.452Z,33.53
2018-05-24T19:15:21.440Z,34.37
2018-05-24T19:17:49.136Z,33.70
2018-05-24T19:20:17.606Z,35.00
2018-05-24T19:22:45.377Z,34.70
2018-05-24T19:25:14.111Z,34.40
2018-05-24T19:27:42.546Z,37.10
2018-05-24T19:30:10.325Z,34.47
2018-05-24T19:32:38.107Z,36.30
2018-05-24T19:35:06.212Z,36.20
2018-05-24T19:37:36.380Z,36.13
2018-05-24T19:40:04.061Z,34.37
2018-05-24T19:42:32.447Z,36.70
2018-05-24T19:45:00.151Z,37.83
2018-05-24T19:47:27.789Z,39.50
2018-05-24T19:49:56.433Z,37.63
2018-05-24T19:52:24.782Z,41.00
2018-05-24T19:54:55.107Z,39.50
2018-05-24T19:57:28.255Z,37.57
2018-05-24T19:59:56.061Z,40.83
2018-05-24T20:02:23.861Z,37.73
2018-05-24T20:04:54.439Z,41.27
2018-05-24T20:07:39.161Z,38.17
2018-05-24T20:10:08.931Z,36.13
2018-05-24T20:12:36.560Z,35.60
2018-05-24T20:15:04.091Z,35.20
2018-05-24T20:17:44.762Z,33.83
2018-05-24T20:20:13.106Z,33.60
2018-05-24T20:22:40.705Z,34.90
2018-05-24T20:25:09.405Z,32.40
2018-05-24T20:27:37.950Z,35.10
2018-05-24T20:30:12.064Z,33.23
2018-05-24T20:32:43.510Z,33.30
2018-05-24T20:35:11.319Z,33.80
2018-05-24T20:37:44.149Z,35.20
2018-05-24T20:40:11.727Z,31.93
2018-05-24T20:42:39.736Z,34.53
2018-05-24T20:45:08.209Z,35.43
2018-05-24T20:47:36.178Z,34.83
2018-05-24T20:50:09.687Z,34.97
2018-05-24T20:52:37.417Z,35.10
2018-05-24T20:55:09.903Z,34.87
2018-05-24T20:57:38.244Z,34.07
2018-05-24T21:00:05.880Z,36.93
2018-05-24T21:02:37.419Z,34.70
2018-05-24T21:05:10.679Z,35.90
2018-05-24T21:07:38.388Z,36.30
2018-05-24T21:10:07.586Z,36.40
2018-05-24T21:12:36.826Z,35.77
2018-05-24T21:15:04.471Z,39.30
2018-05-24T21:17:32.336Z,42.53
2018-05-24T21:20:00.819Z,43.53
2018-05-24T21:22:28.469Z,44.80
2018-05-24T21:24:56.067Z,45.63
2018-05-24T21:27:24.388Z,44.30
2018-05-24T21:29:52.804Z,46.00
2018-05-24T21:32:21.790Z,45.40
2018-05-24T21:34:51.029Z,44.13
2018-05-24T21:37:19.463Z,44.90
2018-05-24T21:39:47.072Z,45.10
2018-05-24T21:42:14.681Z,45.27
2018-05-24T21:44:42.199Z,41.47
2018-05-24T21:47:11.408Z,43.30
2018-05-24T21:49:40.723Z,39.50
2018-05-24T21:52:08.335Z,40.93
2018-05-24T21:54:36.648Z,36.03
2018-05-24T21:57:04.233Z,22.90
2018-05-24T21:59:32.112Z,27.70
2018-05-24T22:01:59.799Z,29.77
2018-05-24T22:04:27.325Z,28.47
2018-05-24T22:06:54.955Z,30.87
2018-05-24T22:09:22.549Z,27.40
2018-05-24T22:11:50.210Z,26.77
2018-05-24T22:14:17.884Z,26.37
2018-05-24T22:16:45.587Z,29.33
2018-05-24T22:19:13.131Z,30.90
2018-05-24T22:21:40.833Z,32.00
2018-05-24T22:24:08.375Z,30.93
2018-05-24T22:26:36.895Z,31.47
2018-05-24T22:29:04.474Z,32.23
2018-05-24T22:31:32.123Z,31.10
2018-05-24T22:34:00.376Z,29.70
2018-05-24T22:36:28.042Z,36.00
2018-05-24T22:38:55.722Z,35.90
2018-05-24T22:41:23.413Z,32.97
2018-05-24T22:43:51.081Z,33.83
2018-05-24T22:46:18.728Z,35.20
2018-05-24T22:48:46.600Z,34.17
2018-05-24T22:51:14.310Z,31.80
2018-05-24T22:53:42.007Z,32.23
2018-05-24T22:56:09.712Z,34.17
2018-05-24T22:58:38.117Z,32.33
2018-05-24T23:01:05.683Z,29.80
2018-05-24T23:03:33.380Z,30.10
2018-05-24T23:06:01.924Z,29.90
2018-05-24T23:08:29.519Z,30.70
2018-05-24T23:10:57.167Z,22.97
2018-05-24T23:13:24.915Z,29.93
2018-05-24T23:15:52.460Z,32.73
2018-05-24T23:18:20.899Z,32.00
2018-05-24T23:20:48.445Z,21.13
2018-05-24T23:23:16.011Z,21.03
2018-05-24T23:25:43.539Z,28.60
2018-05-24T23:28:11.257Z,31.77
2018-05-24T23:30:38.909Z,23.00
2018-05-24T23:33:08.177Z,24.40
2018-05-24T23:35:35.700Z,26.53
2018-05-24T23:38:04.131Z,27.77
2018-05-24T23:40:31.690Z,27.97
2018-05-24T23:42:59.388Z,30.47
2018-05-24T23:45:27.103Z,27.87
2018-05-24T23:47:54.994Z,27.00
2018-05-24T23:50:22.507Z,29.43
2018-05-24T23:52:51.033Z,32.50
2018-05-24T23:55:18.555Z,30.87
2018-05-24T23:57:46.336Z,28.60
